Weather at Colonial Air Park

Public forecast

Using degrees Fahrenheit for public forecast. Weather courtesy of forecast.io.

Closest aviation weather report (METAR) to Colonial Air Park

Closest report is Olive Branch Airport, 3.0 nm (5.5 km) WSW. Retrieved 2020/10/29 15:50 UTC (1 hour ago):

KOLV 291550Z 23014G20KT 3SM BR BKN007 OVC012 11/11 A2974

Closest aviation forecast (TAF) to Colonial Air Park

Closest forecast is Memphis International Airport, 12.4 nm (23.0 km) WNW. Retrieved 2020/10/29 12:22 UTC (5 hours ago):

TAF KMEM 291120Z 2912/3018 27009KT P6SM BKN007 OVC020 FM291700 29010G18KT 5SM -RA BR OVC008 FM292100 33016G22KT 5SM BR VCSH OVC005 FM300300 35010KT 5SM BR OVC015 FM301300 01008KT P6SM BKN050